Time;durP1;ratioP1;P1;durP2;ratioP2;P2;SDS_P1;SDS_P2;PMS_P1;PMS_P2;Temp;Humidity;BMP_temperature;BMP_pressure;BME280_temperature;BME280_humidity;BME280_pressure;Samples;Min_cycle;Max_cycle;Signal;HPM_P1;HPM_P2
2021/01/31 00:00:53;;;;;;;25.10;18.60;;;;;;;;;;5117079;27;20084;-71
2021/01/31 00:03:20;;;;;;;24.37;18.30;;;;;;;;;;5123247;27;20039;-71
2021/01/31 00:05:46;;;;;;;26.80;18.85;;;;;;;;;;5134246;27;20028;-71
2021/01/31 00:08:12;;;;;;;24.20;17.65;;;;;;;;;;5133229;27;20023;-71
2021/01/31 00:10:38;;;;;;;24.55;19.00;;;;;;;;;;5131993;27;20057;-71
2021/01/31 00:13:04;;;;;;;26.60;18.90;;;;;;;;;;5133410;27;20046;-71
2021/01/31 00:15:35;;;;;;;25.38;18.45;;;;;;;;;;5111786;27;20374;-71
2021/01/31 00:18:00;;;;;;;28.00;18.85;;;;;;;;;;5135150;27;20498;-71
2021/01/31 00:20:27;;;;;;;26.55;18.60;;;;;;;;;;5130180;27;20099;-71
2021/01/31 00:22:55;;;;;;;25.65;19.30;;;;;;;;;;5134705;27;20019;-71
2021/01/31 00:25:20;;;;;;;28.23;18.90;;;;;;;;;;5111382;27;20026;-71
2021/01/31 00:27:45;;;;;;;27.10;18.97;;;;;;;;;;5113963;27;20414;-71
2021/01/31 00:30:19;;;;;;;25.57;19.23;;;;;;;;;;5133620;27;20007;-71
2021/01/31 00:32:44;;;;;;;28.77;19.42;;;;;;;;;;5131451;27;20427;-71
2021/01/31 00:35:10;;;;;;;27.00;19.43;;;;;;;;;;5133308;27;20034;-71
2021/01/31 00:37:35;;;;;;;26.67;20.30;;;;;;;;;;5108931;27;20386;-71
2021/01/31 00:40:00;;;;;;;28.70;20.03;;;;;;;;;;5125485;27;20102;-71
2021/01/31 00:42:25;;;;;;;26.63;19.10;;;;;;;;;;5122989;27;20020;-71
2021/01/31 00:44:51;;;;;;;27.20;19.20;;;;;;;;;;5124979;27;20023;-70
2021/01/31 00:47:17;;;;;;;28.33;19.90;;;;;;;;;;5123019;27;20019;-71
2021/01/31 00:49:43;;;;;;;27.73;20.10;;;;;;;;;;5130613;27;20014;-71
2021/01/31 00:52:08;;;;;;;27.08;18.90;;;;;;;;;;5139857;27;20023;-71
2021/01/31 00:54:34;;;;;;;25.63;18.17;;;;;;;;;;5139333;27;20014;-71
2021/01/31 00:57:02;;;;;;;29.90;22.07;;;;;;;;;;5119632;27;20035;-71
2021/01/31 00:59:27;;;;;;;27.80;20.02;;;;;;;;;;5138413;27;20015;-71
2021/01/31 01:01:52;;;;;;;25.57;18.67;;;;;;;;;;5138962;27;20023;-71
2021/01/31 01:04:18;;;;;;;29.37;20.57;;;;;;;;;;5139186;27;20043;-70
2021/01/31 01:06:44;;;;;;;29.27;21.00;;;;;;;;;;5136948;27;20033;-71
2021/01/31 01:09:09;;;;;;;30.20;20.55;;;;;;;;;;5139295;27;20032;-70
2021/01/31 01:11:34;;;;;;;26.03;19.37;;;;;;;;;;5139291;27;20425;-71
2021/01/31 01:13:59;;;;;;;28.40;19.97;;;;;;;;;;5121203;27;20023;-71
2021/01/31 01:16:25;;;;;;;30.33;21.70;;;;;;;;;;5137614;27;20017;-71
2021/01/31 01:18:50;;;;;;;29.63;20.53;;;;;;;;;;5120327;27;20031;-71
2021/01/31 01:21:15;;;;;;;28.20;20.00;;;;;;;;;;5139089;27;20357;-71
2021/01/31 01:23:44;;;;;;;25.33;17.45;;;;;;;;;;5138592;27;20011;-71
2021/01/31 01:26:09;;;;;;;28.02;20.88;;;;;;;;;;5138956;27;20030;-71
2021/01/31 01:28:34;;;;;;;30.60;20.50;;;;;;;;;;5136695;27;20023;-71
2021/01/31 01:31:00;;;;;;;27.60;19.43;;;;;;;;;;5138948;27;20020;-71
2021/01/31 01:33:25;;;;;;;26.33;19.63;;;;;;;;;;5120052;27;20030;-71
2021/01/31 01:35:50;;;;;;;29.70;21.03;;;;;;;;;;5138721;27;20047;-71
2021/01/31 01:38:15;;;;;;;26.63;19.43;;;;;;;;;;5118225;27;20062;-71
2021/01/31 01:40:41;;;;;;;26.47;19.33;;;;;;;;;;5138552;27;20090;-71
2021/01/31 01:43:17;;;;;;;28.35;20.00;;;;;;;;;;5138522;27;20027;-71
2021/01/31 01:45:42;;;;;;;28.55;20.05;;;;;;;;;;5125130;27;20094;-71
2021/01/31 01:48:17;;;;;;;30.40;22.07;;;;;;;;;;5138323;27;20055;-71
2021/01/31 01:50:48;;;;;;;29.77;21.13;;;;;;;;;;5135402;27;20027;-71
2021/01/31 01:53:13;;;;;;;29.92;20.70;;;;;;;;;;5138602;27;20026;-71
2021/01/31 01:55:42;;;;;;;29.90;21.13;;;;;;;;;;5120150;27;20031;-71
2021/01/31 01:58:12;;;;;;;30.77;21.45;;;;;;;;;;5138595;27;20018;-71
2021/01/31 02:00:40;;;;;;;33.15;20.80;;;;;;;;;;5124543;27;20110;-71
2021/01/31 02:03:10;;;;;;;30.05;20.98;;;;;;;;;;5137974;27;20043;-71
2021/01/31 02:05:36;;;;;;;31.00;21.83;;;;;;;;;;5138318;27;20007;-71
2021/01/31 02:08:01;;;;;;;27.15;19.10;;;;;;;;;;5138086;27;20018;-71
2021/01/31 02:10:27;;;;;;;30.17;20.15;;;;;;;;;;5135640;27;20372;-71
2021/01/31 02:12:58;;;;;;;28.70;20.80;;;;;;;;;;5137704;27;20022;-71
2021/01/31 02:15:23;;;;;;;29.98;20.80;;;;;;;;;;5138140;27;20039;-71
2021/01/31 02:17:48;;;;;;;28.53;20.40;;;;;;;;;;5137891;27;20116;-71
2021/01/31 02:20:34;;;;;;;29.13;21.43;;;;;;;;;;5137734;27;20038;-71
2021/01/31 02:23:02;;;;;;;30.00;21.05;;;;;;;;;;5137825;27;20023;-71
2021/01/31 02:25:45;;;;;;;31.77;21.40;;;;;;;;;;5137794;27;20008;-71
2021/01/31 02:28:26;;;;;;;28.45;19.98;;;;;;;;;;5137745;27;20316;-71
2021/01/31 02:31:10;;;;;;;28.55;20.40;;;;;;;;;;5137503;27;20026;-70
2021/01/31 02:33:40;;;;;;;30.73;21.30;;;;;;;;;;5137316;27;20319;-71
2021/01/31 02:36:09;;;;;;;28.70;20.38;;;;;;;;;;5137217;27;20412;-70
2021/01/31 02:38:54;;;;;;;29.90;20.40;;;;;;;;;;5136766;27;20015;-71
2021/01/31 02:41:28;;;;;;;28.02;20.10;;;;;;;;;;5137018;27;20068;-71
2021/01/31 02:43:53;;;;;;;29.30;20.10;;;;;;;;;;5123183;27;20023;-71
2021/01/31 02:46:37;;;;;;;31.90;22.40;;;;;;;;;;5137481;27;20073;-71
2021/01/31 02:49:02;;;;;;;29.90;21.10;;;;;;;;;;5123027;27;20346;-71
2021/01/31 02:51:30;;;;;;;31.70;23.30;;;;;;;;;;5137636;27;20026;-71
2021/01/31 02:53:55;;;;;;;30.10;21.13;;;;;;;;;;5135313;27;20019;-71
2021/01/31 02:56:41;;;;;;;29.10;20.23;;;;;;;;;;5137193;27;20361;-71
2021/01/31 02:59:08;;;;;;;27.88;19.38;;;;;;;;;;5136462;27;20031;-71
2021/01/31 03:01:40;;;;;;;29.48;19.85;;;;;;;;;;5135582;27;20027;-71
2021/01/31 03:04:08;;;;;;;29.40;21.10;;;;;;;;;;5137031;27;20051;-71
2021/01/31 03:06:59;;;;;;;29.92;21.15;;;;;;;;;;5118815;27;20403;-71
2021/01/31 03:09:32;;;;;;;29.70;20.50;;;;;;;;;;5131186;27;20034;-71
2021/01/31 03:12:02;;;;;;;28.50;20.35;;;;;;;;;;5134739;27;20023;-71
2021/01/31 03:14:40;;;;;;;28.73;20.27;;;;;;;;;;5136797;27;20015;-71
2021/01/31 03:17:08;;;;;;;30.08;20.88;;;;;;;;;;5137139;27;20013;-71
2021/01/31 03:19:40;;;;;;;32.08;21.00;;;;;;;;;;5128144;27;20027;-71
2021/01/31 03:22:26;;;;;;;29.27;19.92;;;;;;;;;;5134599;27;20023;-71
2021/01/31 03:24:57;;;;;;;30.00;20.02;;;;;;;;;;5130811;27;20459;-71
2021/01/31 03:27:26;;;;;;;31.65;21.15;;;;;;;;;;5137206;28;20049;-71
2021/01/31 03:29:52;;;;;;;30.02;20.98;;;;;;;;;;5136980;28;20357;-71
2021/01/31 03:32:22;;;;;;;30.00;20.20;;;;;;;;;;5137117;28;20020;-71
2021/01/31 03:34:56;;;;;;;32.63;22.00;;;;;;;;;;5120925;28;20016;-71
2021/01/31 03:37:23;;;;;;;32.45;22.77;;;;;;;;;;5136951;28;20087;-72
2021/01/31 03:39:49;;;;;;;31.75;21.60;;;;;;;;;;5137027;28;20026;-71
2021/01/31 03:42:14;;;;;;;30.13;21.35;;;;;;;;;;5137214;28;20293;-72
2021/01/31 03:44:42;;;;;;;30.40;21.50;;;;;;;;;;5135301;28;20068;-71
2021/01/31 03:47:11;;;;;;;29.75;20.17;;;;;;;;;;5136390;28;20110;-72
2021/01/31 03:49:40;;;;;;;31.38;21.42;;;;;;;;;;5136930;28;20023;-71
2021/01/31 03:52:05;;;;;;;30.48;21.55;;;;;;;;;;5136666;28;20050;-72
2021/01/31 03:54:31;;;;;;;30.90;20.93;;;;;;;;;;5135048;28;20047;-71
2021/01/31 03:57:01;;;;;;;33.30;21.57;;;;;;;;;;5136642;28;20031;-72
2021/01/31 03:59:29;;;;;;;28.25;20.15;;;;;;;;;;5136821;28;20080;-72
2021/01/31 04:01:55;;;;;;;31.38;21.67;;;;;;;;;;5118112;28;20428;-71
2021/01/31 04:04:29;;;;;;;31.23;21.65;;;;;;;;;;5118226;28;20035;-72
2021/01/31 04:06:56;;;;;;;31.27;21.05;;;;;;;;;;5135032;28;20026;-71
2021/01/31 04:09:21;;;;;;;31.80;22.17;;;;;;;;;;5136591;28;20011;-71
2021/01/31 04:11:47;;;;;;;31.43;20.93;;;;;;;;;;5136737;28;20026;-72
2021/01/31 04:14:12;;;;;;;31.07;21.83;;;;;;;;;;5136529;28;20025;-72
2021/01/31 04:16:44;;;;;;;35.23;21.90;;;;;;;;;;5126549;28;20028;-71
2021/01/31 04:19:10;;;;;;;31.52;20.58;;;;;;;;;;5132174;28;20435;-71
2021/01/31 04:21:35;;;;;;;28.80;20.58;;;;;;;;;;5136654;28;20018;-71
2021/01/31 04:24:01;;;;;;;34.43;23.07;;;;;;;;;;5136707;28;20027;-71
2021/01/31 04:26:26;;;;;;;33.30;22.40;;;;;;;;;;5134751;28;20016;-71
2021/01/31 04:28:51;;;;;;;32.80;22.47;;;;;;;;;;5135682;28;20487;-71
2021/01/31 04:31:16;;;;;;;32.37;23.00;;;;;;;;;;5136283;28;20019;-71
2021/01/31 04:33:41;;;;;;;30.23;21.43;;;;;;;;;;5139446;27;20035;-71
2021/01/31 04:36:06;;;;;;;30.50;20.67;;;;;;;;;;5139648;27;20091;-71
2021/01/31 04:38:32;;;;;;;31.83;22.80;;;;;;;;;;5137696;27;20023;-72
2021/01/31 04:40:58;;;;;;;32.23;21.63;;;;;;;;;;5139049;27;20031;-71
2021/01/31 04:43:23;;;;;;;32.10;21.73;;;;;;;;;;5139002;27;20022;-72
2021/01/31 04:45:48;;;;;;;32.50;22.47;;;;;;;;;;5139899;27;20015;-72
2021/01/31 04:48:37;;;;;;;37.23;24.30;;;;;;;;;;5138027;27;20068;-72
2021/01/31 04:51:09;;;;;;;33.15;22.55;;;;;;;;;;5139582;27;20018;-72
2021/01/31 04:53:43;;;;;;;33.33;22.58;;;;;;;;;;5138923;27;20077;-72
2021/01/31 04:56:12;;;;;;;32.65;22.05;;;;;;;;;;5120784;27;20023;-72
2021/01/31 04:58:42;;;;;;;33.47;21.88;;;;;;;;;;5137178;27;20047;-72
2021/01/31 05:01:26;;;;;;;32.60;23.27;;;;;;;;;;5139708;27;20041;-72
2021/01/31 05:04:08;;;;;;;35.65;23.83;;;;;;;;;;5139356;27;20399;-72
2021/01/31 05:06:37;;;;;;;35.40;22.10;;;;;;;;;;5139760;27;20015;-72
2021/01/31 05:09:03;;;;;;;33.47;22.85;;;;;;;;;;5137733;27;20329;-71
2021/01/31 05:11:47;;;;;;;28.88;20.48;;;;;;;;;;5139680;27;20339;-72
2021/01/31 05:14:32;;;;;;;34.33;22.92;;;;;;;;;;5139442;27;20418;-72
2021/01/31 05:16:57;;;;;;;33.45;21.15;;;;;;;;;;5139325;27;20080;-72
2021/01/31 05:19:29;;;;;;;33.23;22.50;;;;;;;;;;5138789;27;20020;-71
2021/01/31 05:21:55;;;;;;;32.03;20.92;;;;;;;;;;5139251;27;20019;-72
2021/01/31 05:24:21;;;;;;;34.13;23.03;;;;;;;;;;5120950;27;20353;-72
2021/01/31 05:26:57;;;;;;;33.40;22.30;;;;;;;;;;5139343;27;20467;-72
2021/01/31 05:29:24;;;;;;;33.67;21.90;;;;;;;;;;5138959;27;20067;-72
2021/01/31 05:32:04;;;;;;;33.78;22.98;;;;;;;;;;5137550;27;20014;-72
2021/01/31 05:34:35;;;;;;;29.48;20.15;;;;;;;;;;5120473;27;20023;-72
2021/01/31 05:37:02;;;;;;;39.53;22.35;;;;;;;;;;5139158;27;20603;-72
2021/01/31 05:39:34;;;;;;;32.42;21.92;;;;;;;;;;5139020;27;20427;-73
2021/01/31 05:42:03;;;;;;;30.65;21.48;;;;;;;;;;5137265;27;20015;-72
2021/01/31 05:44:32;;;;;;;30.73;20.73;;;;;;;;;;5119335;27;20030;-72
2021/01/31 05:46:59;;;;;;;31.83;22.60;;;;;;;;;;5120456;27;20064;-73
2021/01/31 05:49:31;;;;;;;33.97;22.85;;;;;;;;;;5120240;27;20392;-72
2021/01/31 05:51:56;;;;;;;34.08;23.77;;;;;;;;;;5133342;27;20020;-73
2021/01/31 05:54:31;;;;;;;36.17;22.50;;;;;;;;;;5128888;27;20015;-72
2021/01/31 05:56:56;;;;;;;34.33;21.15;;;;;;;;;;5138534;27;20427;-72
2021/01/31 05:59:22;;;;;;;33.63;22.03;;;;;;;;;;5138711;27;20073;-72
2021/01/31 06:01:50;;;;;;;33.20;21.60;;;;;;;;;;5138443;27;20427;-73
2021/01/31 06:04:16;;;;;;;32.63;22.65;;;;;;;;;;5136698;27;20061;-73
2021/01/31 06:06:42;;;;;;;33.53;22.55;;;;;;;;;;5138602;27;20408;-73
2021/01/31 06:09:12;;;;;;;32.22;20.90;;;;;;;;;;5138293;27;20054;-72
2021/01/31 06:11:38;;;;;;;32.85;22.23;;;;;;;;;;5138408;27;20039;-72
2021/01/31 06:14:22;;;;;;;35.85;22.73;;;;;;;;;;5136442;27;20074;-73
2021/01/31 06:16:47;;;;;;;33.97;23.77;;;;;;;;;;5138273;27;20412;-73
2021/01/31 06:19:18;;;;;;;31.43;21.63;;;;;;;;;;5138136;27;20015;-73
2021/01/31 06:21:49;;;;;;;32.47;21.88;;;;;;;;;;5138215;27;20026;-73
2021/01/31 06:24:23;;;;;;;34.50;22.45;;;;;;;;;;5136152;27;20072;-73
2021/01/31 06:26:49;;;;;;;32.63;22.45;;;;;;;;;;5138098;27;20107;-73
2021/01/31 06:29:33;;;;;;;34.13;20.90;;;;;;;;;;5137935;27;20347;-72
2021/01/31 06:32:01;;;;;;;37.20;24.05;;;;;;;;;;5138007;27;20025;-73
2021/01/31 06:34:27;;;;;;;34.08;22.35;;;;;;;;;;5136049;27;20091;-73
2021/01/31 06:36:52;;;;;;;33.83;22.40;;;;;;;;;;5119669;27;20047;-73
2021/01/31 06:39:33;;;;;;;37.23;24.23;;;;;;;;;;5119687;27;20059;-73
2021/01/31 06:42:08;;;;;;;35.15;22.30;;;;;;;;;;5137758;27;20043;-73
2021/01/31 06:44:50;;;;;;;31.15;21.40;;;;;;;;;;5137514;27;20046;-73
2021/01/31 06:47:34;;;;;;;33.80;22.10;;;;;;;;;;5137457;27;20164;-73
2021/01/31 06:50:06;;;;;;;35.40;23.77;;;;;;;;;;5119300;27;20030;-73
2021/01/31 06:52:51;;;;;;;36.60;22.95;;;;;;;;;;5137595;27;20027;-73
2021/01/31 06:55:29;;;;;;;35.03;23.00;;;;;;;;;;5135748;27;20352;-73
2021/01/31 06:58:07;;;;;;;34.58;22.38;;;;;;;;;;5128737;27;20090;-73
2021/01/31 07:00:56;;;;;;;35.42;22.02;;;;;;;;;;5137602;27;20026;-73
2021/01/31 07:03:37;;;;;;;31.35;22.48;;;;;;;;;;5118684;27;20070;-73
2021/01/31 07:06:26;;;;;;;33.13;22.88;;;;;;;;;;5135784;27;20022;-73
2021/01/31 07:09:10;;;;;;;37.60;24.73;;;;;;;;;;5111977;27;20478;-72
2021/01/31 07:11:50;;;;;;;35.55;22.45;;;;;;;;;;5137374;27;20019;-72
2021/01/31 07:14:16;;;;;;;34.53;23.23;;;;;;;;;;5137205;27;20019;-73
2021/01/31 07:16:47;;;;;;;30.53;21.27;;;;;;;;;;5135841;27;20027;-73
2021/01/31 07:19:18;;;;;;;32.80;22.02;;;;;;;;;;5135937;27;20019;-73
2021/01/31 07:21:49;;;;;;;36.55;22.45;;;;;;;;;;5137231;27;20019;-73
2021/01/31 07:24:20;;;;;;;39.50;24.77;;;;;;;;;;5136924;27;20015;-72
2021/01/31 07:27:12;;;;;;;38.20;23.88;;;;;;;;;;5137133;27;20023;-73
2021/01/31 07:29:40;;;;;;;33.60;21.92;;;;;;;;;;5032522;28;20370;-73
2021/01/31 07:32:09;;;;;;;34.83;22.88;;;;;;;;;;5034140;28;20025;-73
2021/01/31 07:34:34;;;;;;;36.85;23.75;;;;;;;;;;5034199;28;20338;-73
2021/01/31 07:36:59;;;;;;;35.53;22.77;;;;;;;;;;5034196;28;20014;-73
2021/01/31 07:39:26;;;;;;;36.33;23.23;;;;;;;;;;5032337;28;20041;-73
2021/01/31 07:41:56;;;;;;;34.90;22.92;;;;;;;;;;5033932;28;20070;-73
2021/01/31 07:44:23;;;;;;;37.83;24.38;;;;;;;;;;5033967;28;20030;-72
2021/01/31 07:46:48;;;;;;;42.03;24.42;;;;;;;;;;5033750;28;20100;-73
2021/01/31 07:49:14;;;;;;;36.63;23.57;;;;;;;;;;5032251;28;20164;-73
2021/01/31 07:51:39;;;;;;;35.83;22.57;;;;;;;;;;5016951;28;20099;-73
2021/01/31 07:54:22;;;;;;;35.43;23.57;;;;;;;;;;5033993;28;20037;-73
2021/01/31 07:56:48;;;;;;;33.22;21.77;;;;;;;;;;5033745;28;20041;-73
2021/01/31 07:59:19;;;;;;;32.58;22.00;;;;;;;;;;5032815;28;20033;-73
2021/01/31 08:01:49;;;;;;;34.50;22.23;;;;;;;;;;5017141;28;20029;-73
2021/01/31 08:04:17;;;;;;;31.90;21.65;;;;;;;;;;5033247;28;20501;-73
2021/01/31 08:06:44;;;;;;;32.20;22.02;;;;;;;;;;5085925;28;20046;-73
2021/01/31 08:09:10;;;;;;;33.47;22.58;;;;;;;;;;5108172;27;20031;-73
2021/01/31 08:11:38;;;;;;;31.05;21.52;;;;;;;;;;5139079;27;20026;-72
2021/01/31 08:14:04;;;;;;;32.30;21.48;;;;;;;;;;5137458;27;20359;-73
2021/01/31 08:16:38;;;;;;;32.58;22.45;;;;;;;;;;5140635;27;20043;-73
2021/01/31 08:19:09;;;;;;;31.35;21.13;;;;;;;;;;5140392;27;20021;-72
2021/01/31 08:21:49;;;;;;;31.40;21.75;;;;;;;;;;5138810;27;20377;-73
2021/01/31 08:24:35;;;;;;;29.75;21.13;;;;;;;;;;5121494;27;20084;-73
2021/01/31 08:27:00;;;;;;;30.90;20.05;;;;;;;;;;5140307;27;20020;-73
2021/01/31 08:29:26;;;;;;;30.83;20.77;;;;;;;;;;5139203;27;20042;-72
2021/01/31 08:32:02;;;;;;;32.65;22.27;;;;;;;;;;5138300;27;20034;-73
2021/01/31 08:34:27;;;;;;;31.98;22.77;;;;;;;;;;5139974;27;20019;-73
2021/01/31 08:36:52;;;;;;;32.07;21.63;;;;;;;;;;5140208;27;20027;-74
2021/01/31 08:39:27;;;;;;;31.13;20.70;;;;;;;;;;5140132;27;20015;-73
2021/01/31 08:42:02;;;;;;;34.53;21.90;;;;;;;;;;5139580;27;20026;-72
2021/01/31 08:44:27;;;;;;;27.05;19.38;;;;;;;;;;5140129;27;20019;-72
2021/01/31 08:47:00;;;;;;;28.03;20.23;;;;;;;;;;5139743;27;20460;-73
2021/01/31 08:49:25;;;;;;;31.52;20.48;;;;;;;;;;5136739;27;20018;-72
2021/01/31 08:52:01;;;;;;;29.47;20.73;;;;;;;;;;5138110;27;20090;-72
2021/01/31 08:54:27;;;;;;;29.43;21.07;;;;;;;;;;5138528;27;20015;-72
2021/01/31 08:57:05;;;;;;;32.15;21.88;;;;;;;;;;5134874;27;20251;-72
2021/01/31 08:59:31;;;;;;;29.55;20.92;;;;;;;;;;5138580;27;20092;-72
2021/01/31 09:01:56;;;;;;;34.40;20.10;;;;;;;;;;5137520;27;20011;-72
2021/01/31 09:04:21;;;;;;;28.93;20.47;;;;;;;;;;5116596;28;20047;-72
2021/01/31 09:06:48;;;;;;;30.63;21.67;;;;;;;;;;5118362;28;20380;-72
2021/01/31 09:09:22;;;;;;;27.45;19.70;;;;;;;;;;5117150;28;20072;-72
2021/01/31 09:11:54;;;;;;;29.27;20.17;;;;;;;;;;5116329;28;20019;-73
2021/01/31 09:14:22;;;;;;;26.15;19.85;;;;;;;;;;5117865;28;20110;-73
2021/01/31 09:16:48;;;;;;;26.88;19.30;;;;;;;;;;5116879;28;20073;-74
2021/01/31 09:19:23;;;;;;;25.87;19.13;;;;;;;;;;5117020;28;20065;-71
2021/01/31 09:22:00;;;;;;;29.33;20.40;;;;;;;;;;5098689;28;20302;-72
2021/01/31 09:24:30;;;;;;;26.45;19.17;;;;;;;;;;5111884;28;20302;-72
2021/01/31 09:26:56;;;;;;;27.33;19.10;;;;;;;;;;5102794;28;20114;-70
2021/01/31 09:29:24;;;;;;;26.40;19.53;;;;;;;;;;5116268;28;20114;-70
2021/01/31 09:31:53;;;;;;;25.05;18.35;;;;;;;;;;5116588;28;20081;-70
2021/01/31 09:34:19;;;;;;;28.10;19.65;;;;;;;;;;5111299;28;20111;-70
2021/01/31 09:37:01;;;;;;;26.63;19.40;;;;;;;;;;5114196;28;20094;-70
2021/01/31 09:39:27;;;;;;;28.67;19.63;;;;;;;;;;5113203;28;20421;-71
2021/01/31 09:41:52;;;;;;;23.43;17.03;;;;;;;;;;5106337;28;20069;-70
2021/01/31 09:44:18;;;;;;;24.97;17.23;;;;;;;;;;5104917;28;20025;-71
2021/01/31 09:46:43;;;;;;;25.35;17.40;;;;;;;;;;5106231;28;20420;-70
2021/01/31 09:49:25;;;;;;;25.90;18.73;;;;;;;;;;5117844;28;20035;-70
2021/01/31 09:51:52;;;;;;;24.08;17.52;;;;;;;;;;5106691;28;20019;-70
2021/01/31 09:54:17;;;;;;;;;;;;;;;;;;5107982;28;20055;-71
2021/01/31 09:56:44;;;;;;;23.88;17.83;;;;;;;;;;5116526;28;20021;-71
2021/01/31 09:59:21;;;;;;;23.13;16.80;;;;;;;;;;5117401;28;20020;-71
2021/01/31 10:01:47;;;;;;;23.50;17.55;;;;;;;;;;5105253;28;20205;-70
2021/01/31 10:04:25;;;;;;;23.27;16.80;;;;;;;;;;5120410;27;20118;-70
2021/01/31 10:06:53;;;;;;;26.52;18.20;;;;;;;;;;5130502;27;20016;-71
2021/01/31 10:09:29;;;;;;;23.92;17.48;;;;;;;;;;5127705;27;20040;-71
2021/01/31 10:12:11;;;;;;;23.92;16.70;;;;;;;;;;5112392;27;20030;-71
2021/01/31 10:14:39;;;;;;;25.80;18.40;;;;;;;;;;5119998;27;20011;-70
2021/01/31 10:17:30;;;;;;;23.23;17.15;;;;;;;;;;5125480;27;20055;-71
2021/01/31 10:20:15;;;;;;;23.92;16.88;;;;;;;;;;5133013;27;20015;-70
2021/01/31 10:22:43;;;;;;;23.33;16.17;;;;;;;;;;5129439;27;20023;-70
2021/01/31 10:25:10;;;;;;;27.25;18.02;;;;;;;;;;5134147;27;20109;-70
2021/01/31 10:27:42;;;;;;;22.38;16.50;;;;;;;;;;5123709;27;20015;-70
2021/01/31 10:30:36;;;;;;;23.23;17.05;;;;;;;;;;5119397;27;20110;-70
2021/01/31 10:33:02;;;;;;;23.08;16.23;;;;;;;;;;5038722;28;20359;-70
2021/01/31 10:35:32;;;;;;;24.33;17.07;;;;;;;;;;5051796;28;20028;-70
2021/01/31 10:38:21;;;;;;;22.58;17.38;;;;;;;;;;5040330;28;20033;-70
2021/01/31 10:40:46;;;;;;;22.90;17.20;;;;;;;;;;5040736;28;20063;-70
2021/01/31 10:43:11;;;;;;;26.00;17.70;;;;;;;;;;5038835;28;20064;-70
2021/01/31 10:45:37;;;;;;;23.13;16.90;;;;;;;;;;5041610;28;20017;-70
2021/01/31 10:48:05;;;;;;;22.07;16.50;;;;;;;;;;5044126;28;20028;-70
2021/01/31 10:50:30;;;;;;;21.58;16.20;;;;;;;;;;5040072;28;20113;-70
2021/01/31 10:52:58;;;;;;;21.90;15.77;;;;;;;;;;5039672;28;20202;-71
2021/01/31 10:55:23;;;;;;;21.25;15.65;;;;;;;;;;5031850;28;20435;-71
2021/01/31 10:57:51;;;;;;;22.30;15.27;;;;;;;;;;5031423;28;20026;-71
2021/01/31 11:00:19;;;;;;;21.08;15.13;;;;;;;;;;5025587;28;20026;-70
2021/01/31 11:02:44;;;;;;;20.42;15.35;;;;;;;;;;5041949;28;20029;-70
2021/01/31 11:05:10;;;;;;;21.03;16.07;;;;;;;;;;5025465;28;20095;-70
2021/01/31 11:07:35;;;;;;;19.77;14.73;;;;;;;;;;5014138;28;20018;-70
2021/01/31 11:10:00;;;;;;;21.30;16.17;;;;;;;;;;5077810;28;20036;-71
2021/01/31 11:12:26;;;;;;;19.80;13.80;;;;;;;;;;5106546;28;20019;-70
2021/01/31 11:14:51;;;;;;;20.43;14.43;;;;;;;;;;5109400;28;20016;-71
2021/01/31 11:17:16;;;;;;;20.47;14.73;;;;;;;;;;5108918;28;20050;-70
2021/01/31 11:19:42;;;;;;;22.73;15.57;;;;;;;;;;5113196;28;20019;-70
2021/01/31 11:22:10;;;;;;;20.67;15.07;;;;;;;;;;5108905;28;20020;-71
2021/01/31 11:24:35;;;;;;;19.52;14.43;;;;;;;;;;5112944;28;20015;-71
2021/01/31 11:27:03;;;;;;;19.17;14.27;;;;;;;;;;5112481;28;20024;-71
2021/01/31 11:29:28;;;;;;;20.08;14.73;;;;;;;;;;5114443;28;20121;-70
2021/01/31 11:31:54;;;;;;;19.53;14.53;;;;;;;;;;5097926;28;20016;-70
2021/01/31 11:34:19;;;;;;;22.37;14.97;;;;;;;;;;5096695;28;20095;-70
2021/01/31 11:36:44;;;;;;;18.47;14.60;;;;;;;;;;5095378;28;20492;-70
2021/01/31 11:39:10;;;;;;;21.40;15.53;;;;;;;;;;5086608;28;20035;-70
2021/01/31 11:41:36;;;;;;;18.70;13.87;;;;;;;;;;5111294;28;20016;-70
2021/01/31 11:44:01;;;;;;;19.55;13.82;;;;;;;;;;5117629;28;20019;-70
2021/01/31 11:46:27;;;;;;;21.33;14.77;;;;;;;;;;5114463;28;20020;-70
2021/01/31 11:48:52;;;;;;;22.17;14.23;;;;;;;;;;5116098;28;20023;-70
2021/01/31 11:51:20;;;;;;;22.97;14.23;;;;;;;;;;5111806;28;20344;-70
2021/01/31 11:53:45;;;;;;;20.92;13.88;;;;;;;;;;5110435;28;20069;-70
2021/01/31 11:56:11;;;;;;;17.23;12.97;;;;;;;;;;5107491;28;20031;-70
2021/01/31 11:58:36;;;;;;;19.47;14.43;;;;;;;;;;5102953;28;20065;-70
2021/01/31 12:01:01;;;;;;;19.43;14.10;;;;;;;;;;5100363;28;20016;-70
2021/01/31 12:03:26;;;;;;;19.77;13.60;;;;;;;;;;5112968;27;20016;-70
2021/01/31 12:05:51;;;;;;;21.07;14.13;;;;;;;;;;5117308;27;20041;-70
2021/01/31 12:08:17;;;;;;;19.87;13.97;;;;;;;;;;5134673;27;20015;-71
2021/01/31 12:10:42;;;;;;;19.63;13.97;;;;;;;;;;5137174;27;20015;-70
2021/01/31 12:13:07;;;;;;;18.50;13.97;;;;;;;;;;5133939;27;20026;-70
2021/01/31 12:15:32;;;;;;;17.97;12.53;;;;;;;;;;5130357;27;20035;-70
2021/01/31 12:17:58;;;;;;;16.53;12.77;;;;;;;;;;5132572;27;20165;-70
2021/01/31 12:20:23;;;;;;;19.47;13.70;;;;;;;;;;5135301;27;20012;-70
2021/01/31 12:22:48;;;;;;;20.33;14.27;;;;;;;;;;5113557;27;20160;-70
2021/01/31 12:25:14;;;;;;;21.33;13.30;;;;;;;;;;5131055;27;20041;-70
2021/01/31 12:27:40;;;;;;;21.70;14.18;;;;;;;;;;5130990;27;20050;-71
2021/01/31 12:30:05;;;;;;;19.73;13.60;;;;;;;;;;5140295;27;20412;-71
2021/01/31 12:32:33;;;;;;;17.70;13.10;;;;;;;;;;5140126;27;20027;-70
2021/01/31 12:34:58;;;;;;;17.98;12.65;;;;;;;;;;5140184;27;20308;-71
2021/01/31 12:37:23;;;;;;;18.40;12.77;;;;;;;;;;5135301;27;20106;-71
2021/01/31 12:39:48;;;;;;;18.47;13.50;;;;;;;;;;5129544;27;20469;-71
2021/01/31 12:42:13;;;;;;;20.13;14.10;;;;;;;;;;5125840;27;20018;-70
2021/01/31 12:44:39;;;;;;;18.00;12.93;;;;;;;;;;5120662;27;20409;-71
2021/01/31 12:47:04;;;;;;;18.03;13.80;;;;;;;;;;5127828;27;20025;-70
2021/01/31 12:49:29;;;;;;;17.33;13.13;;;;;;;;;;5139451;27;20007;-71
2021/01/31 12:51:55;;;;;;;17.60;12.20;;;;;;;;;;5132365;27;20004;-71
2021/01/31 12:54:23;;;;;;;17.23;13.00;;;;;;;;;;5129076;27;20361;-71
2021/01/31 12:56:48;;;;;;;20.05;12.40;;;;;;;;;;5111537;27;20008;-71
2021/01/31 12:59:13;;;;;;;20.03;12.83;;;;;;;;;;5109369;28;20324;-71
2021/01/31 13:01:38;;;;;;;20.30;12.90;;;;;;;;;;5128492;27;20057;-71
2021/01/31 13:04:07;;;;;;;18.43;13.50;;;;;;;;;;5133446;27;20126;-71
2021/01/31 13:06:32;;;;;;;18.10;12.77;;;;;;;;;;5139051;27;20148;-71
2021/01/31 13:08:57;;;;;;;21.23;13.53;;;;;;;;;;5136922;27;20098;-71
2021/01/31 13:11:22;;;;;;;19.93;14.33;;;;;;;;;;5133728;27;20015;-70
2021/01/31 13:13:47;;;;;;;17.53;12.47;;;;;;;;;;5128818;27;20435;-70
2021/01/31 13:16:13;;;;;;;18.40;12.53;;;;;;;;;;5126475;27;20422;-69
2021/01/31 13:18:38;;;;;;;16.90;12.40;;;;;;;;;;5128053;27;20045;-70
2021/01/31 13:21:06;;;;;;;16.70;11.57;;;;;;;;;;5129949;27;20408;-72
2021/01/31 13:23:31;;;;;;;15.75;11.35;;;;;;;;;;5129595;27;20023;-70
2021/01/31 13:25:56;;;;;;;14.00;10.23;;;;;;;;;;5132822;27;20028;-70
2021/01/31 13:28:23;;;;;;;17.50;11.67;;;;;;;;;;5130588;27;20296;-70
2021/01/31 13:30:48;;;;;;;17.10;12.07;;;;;;;;;;5138450;27;20011;-70
2021/01/31 13:33:13;;;;;;;15.73;11.97;;;;;;;;;;5134156;27;20027;-70
2021/01/31 13:35:38;;;;;;;19.30;11.93;;;;;;;;;;5139226;27;20038;-70
2021/01/31 13:38:04;;;;;;;19.90;12.17;;;;;;;;;;5137263;27;20646;-70
2021/01/31 13:40:29;;;;;;;13.90;10.23;;;;;;;;;;5137313;27;20031;-70
2021/01/31 13:42:54;;;;;;;14.13;10.70;;;;;;;;;;5132062;27;20410;-71
2021/01/31 13:45:20;;;;;;;14.70;10.33;;;;;;;;;;5124541;27;20015;-71
2021/01/31 13:47:49;;;;;;;16.00;10.73;;;;;;;;;;5137156;27;20027;-71
2021/01/31 13:50:16;;;;;;;15.23;10.82;;;;;;;;;;5134732;27;20012;-71
2021/01/31 13:52:41;;;;;;;15.05;11.43;;;;;;;;;;5125249;27;20038;-71
2021/01/31 13:55:07;;;;;;;15.03;11.33;;;;;;;;;;5132431;27;20106;-70
2021/01/31 13:57:32;;;;;;;16.37;10.97;;;;;;;;;;5126578;27;20408;-71
2021/01/31 13:59:57;;;;;;;14.60;11.37;;;;;;;;;;5137157;27;20023;-71
2021/01/31 14:02:22;;;;;;;14.40;11.03;;;;;;;;;;5136843;27;20019;-71
2021/01/31 14:04:48;;;;;;;13.03;10.30;;;;;;;;;;5130730;27;20345;-71
2021/01/31 14:07:13;;;;;;;26.07;12.47;;;;;;;;;;5137908;27;20016;-71
2021/01/31 14:09:39;;;;;;;15.70;12.00;;;;;;;;;;5136800;27;20359;-72
2021/01/31 14:12:06;;;;;;;15.60;11.50;;;;;;;;;;5123126;27;20070;-69
2021/01/31 14:14:31;;;;;;;13.65;11.07;;;;;;;;;;5137762;27;20023;-69
2021/01/31 14:16:59;;;;;;;14.40;11.50;;;;;;;;;;5124735;27;20107;-69
2021/01/31 14:19:24;;;;;;;17.85;11.43;;;;;;;;;;5136620;27;20312;-70
2021/01/31 14:21:50;;;;;;;17.40;11.27;;;;;;;;;;5137210;27;20034;-69
2021/01/31 14:24:15;;;;;;;15.97;11.20;;;;;;;;;;5132124;27;20050;-70
2021/01/31 14:26:40;;;;;;;14.97;11.50;;;;;;;;;;5138219;27;20042;-70
2021/01/31 14:29:05;;;;;;;14.40;11.53;;;;;;;;;;5135920;27;20014;-70